sensor_id;sensor_type;location;lat;lon;timestamp;temperature;humidity
10062;DHT22;5070;52.382;5.270;2024-03-08T00:00:17;19.60;60.10
10062;DHT22;5070;52.382;5.270;2024-03-08T00:02:47;19.50;60.00
10062;DHT22;5070;52.382;5.270;2024-03-08T00:05:19;19.50;60.00
10062;DHT22;5070;52.382;5.270;2024-03-08T00:07:48;19.50;59.90
10062;DHT22;5070;52.382;5.270;2024-03-08T00:10:16;19.50;59.90
10062;DHT22;5070;52.382;5.270;2024-03-08T00:12:45;19.50;59.90
10062;DHT22;5070;52.382;5.270;2024-03-08T00:15:15;19.40;59.80
10062;DHT22;5070;52.382;5.270;2024-03-08T00:17:46;19.40;59.80
10062;DHT22;5070;52.382;5.270;2024-03-08T00:20:15;19.40;59.80
10062;DHT22;5070;52.382;5.270;2024-03-08T00:22:47;19.40;59.70
10062;DHT22;5070;52.382;5.270;2024-03-08T00:25:15;19.40;59.60
10062;DHT22;5070;52.382;5.270;2024-03-08T00:27:43;19.40;59.60
10062;DHT22;5070;52.382;5.270;2024-03-08T00:30:12;19.40;59.50
10062;DHT22;5070;52.382;5.270;2024-03-08T00:32:41;19.30;59.40
10062;DHT22;5070;52.382;5.270;2024-03-08T00:35:12;19.30;59.50
10062;DHT22;5070;52.382;5.270;2024-03-08T00:37:40;19.30;59.40
10062;DHT22;5070;52.382;5.270;2024-03-08T00:40:11;19.20;59.60
10062;DHT22;5070;52.382;5.270;2024-03-08T00:42:39;19.20;59.30
10062;DHT22;5070;52.382;5.270;2024-03-08T00:45:09;19.20;59.20
10062;DHT22;5070;52.382;5.270;2024-03-08T00:47:38;19.20;59.10
10062;DHT22;5070;52.382;5.270;2024-03-08T00:50:07;19.20;59.10
10062;DHT22;5070;52.382;5.270;2024-03-08T00:52:38;19.20;59.10
10062;DHT22;5070;52.382;5.270;2024-03-08T00:55:07;19.10;59.00
10062;DHT22;5070;52.382;5.270;2024-03-08T00:57:38;19.10;59.00
10062;DHT22;5070;52.382;5.270;2024-03-08T01:00:07;19.10;58.90
10062;DHT22;5070;52.382;5.270;2024-03-08T01:02:36;19.10;59.00
10062;DHT22;5070;52.382;5.270;2024-03-08T01:05:08;19.10;58.90
10062;DHT22;5070;52.382;5.270;2024-03-08T01:07:36;19.10;58.90
10062;DHT22;5070;52.382;5.270;2024-03-08T01:10:05;19.00;58.80
10062;DHT22;5070;52.382;5.270;2024-03-08T01:12:37;19.10;58.80
10062;DHT22;5070;52.382;5.270;2024-03-08T01:15:06;19.10;58.80
10062;DHT22;5070;52.382;5.270;2024-03-08T01:17:34;19.00;58.70
10062;DHT22;5070;52.382;5.270;2024-03-08T01:20:03;19.00;58.70
10062;DHT22;5070;52.382;5.270;2024-03-08T01:22:32;19.00;58.70
10062;DHT22;5070;52.382;5.270;2024-03-08T01:25:00;19.00;58.80
10062;DHT22;5070;52.382;5.270;2024-03-08T01:27:28;18.90;58.70
10062;DHT22;5070;52.382;5.270;2024-03-08T01:29:57;18.90;58.70
10062;DHT22;5070;52.382;5.270;2024-03-08T01:32:26;18.90;58.70
10062;DHT22;5070;52.382;5.270;2024-03-08T01:34:54;18.90;59.20
10062;DHT22;5070;52.382;5.270;2024-03-08T01:37:22;18.90;58.70
10062;DHT22;5070;52.382;5.270;2024-03-08T01:39:51;19.00;58.60
10062;DHT22;5070;52.382;5.270;2024-03-08T01:42:18;18.90;58.50
10062;DHT22;5070;52.382;5.270;2024-03-08T01:44:46;18.90;58.60
10062;DHT22;5070;52.382;5.270;2024-03-08T01:47:16;18.90;58.50
10062;DHT22;5070;52.382;5.270;2024-03-08T01:49:44;18.90;58.40
10062;DHT22;5070;52.382;5.270;2024-03-08T01:52:12;18.90;58.50
10062;DHT22;5070;52.382;5.270;2024-03-08T01:54:41;18.80;58.40
10062;DHT22;5070;52.382;5.270;2024-03-08T01:57:10;18.80;58.40
10062;DHT22;5070;52.382;5.270;2024-03-08T01:59:38;18.80;58.40
10062;DHT22;5070;52.382;5.270;2024-03-08T02:02:08;18.80;58.40
10062;DHT22;5070;52.382;5.270;2024-03-08T02:04:40;18.70;58.40
10062;DHT22;5070;52.382;5.270;2024-03-08T02:07:08;18.70;58.40
10062;DHT22;5070;52.382;5.270;2024-03-08T02:09:37;18.70;58.30
10062;DHT22;5070;52.382;5.270;2024-03-08T02:12:06;18.70;58.30
10062;DHT22;5070;52.382;5.270;2024-03-08T02:14:37;18.70;58.20
10062;DHT22;5070;52.382;5.270;2024-03-08T02:17:07;18.70;58.20
10062;DHT22;5070;52.382;5.270;2024-03-08T02:19:35;18.70;58.20
10062;DHT22;5070;52.382;5.270;2024-03-08T02:22:05;18.60;58.10
10062;DHT22;5070;52.382;5.270;2024-03-08T02:24:33;18.60;58.10
10062;DHT22;5070;52.382;5.270;2024-03-08T02:27:01;18.60;58.00
10062;DHT22;5070;52.382;5.270;2024-03-08T02:29:30;18.60;58.00
10062;DHT22;5070;52.382;5.270;2024-03-08T02:31:59;18.60;58.00
10062;DHT22;5070;52.382;5.270;2024-03-08T02:34:27;18.60;58.00
10062;DHT22;5070;52.382;5.270;2024-03-08T02:36:55;18.60;58.00
10062;DHT22;5070;52.382;5.270;2024-03-08T02:39:25;18.50;57.90
10062;DHT22;5070;52.382;5.270;2024-03-08T02:41:54;18.60;58.00
10062;DHT22;5070;52.382;5.270;2024-03-08T02:44:22;18.50;57.90
10062;DHT22;5070;52.382;5.270;2024-03-08T02:46:50;18.50;57.90
10062;DHT22;5070;52.382;5.270;2024-03-08T02:49:21;18.50;57.90
10062;DHT22;5070;52.382;5.270;2024-03-08T02:51:49;18.50;57.90
10062;DHT22;5070;52.382;5.270;2024-03-08T02:54:17;18.40;57.90
10062;DHT22;5070;52.382;5.270;2024-03-08T02:56:47;18.40;57.80
10062;DHT22;5070;52.382;5.270;2024-03-08T02:59:18;18.40;57.80
10062;DHT22;5070;52.382;5.270;2024-03-08T03:01:46;18.40;57.70
10062;DHT22;5070;52.382;5.270;2024-03-08T03:04:14;18.40;57.80
10062;DHT22;5070;52.382;5.270;2024-03-08T03:06:41;18.40;57.70
10062;DHT22;5070;52.382;5.270;2024-03-08T03:09:09;18.40;57.70
10062;DHT22;5070;52.382;5.270;2024-03-08T03:11:38;18.40;57.70
10062;DHT22;5070;52.382;5.270;2024-03-08T03:14:08;18.30;57.70
10062;DHT22;5070;52.382;5.270;2024-03-08T03:16:36;18.30;57.70
10062;DHT22;5070;52.382;5.270;2024-03-08T03:19:04;18.30;57.70
10062;DHT22;5070;52.382;5.270;2024-03-08T03:21:32;18.30;57.70
10062;DHT22;5070;52.382;5.270;2024-03-08T03:24:02;18.30;57.70
10062;DHT22;5070;52.382;5.270;2024-03-08T03:26:31;18.30;57.70
10062;DHT22;5070;52.382;5.270;2024-03-08T03:28:59;18.30;57.60
10062;DHT22;5070;52.382;5.270;2024-03-08T03:31:31;18.20;57.60
10062;DHT22;5070;52.382;5.270;2024-03-08T03:33:59;18.20;57.70
10062;DHT22;5070;52.382;5.270;2024-03-08T03:36:29;18.20;57.60
10062;DHT22;5070;52.382;5.270;2024-03-08T03:38:57;18.20;57.50
10062;DHT22;5070;52.382;5.270;2024-03-08T03:41:37;18.20;57.50
10062;DHT22;5070;52.382;5.270;2024-03-08T03:44:05;18.20;57.50
10062;DHT22;5070;52.382;5.270;2024-03-08T03:46:35;18.20;57.50
10062;DHT22;5070;52.382;5.270;2024-03-08T03:49:03;18.20;57.60
10062;DHT22;5070;52.382;5.270;2024-03-08T03:51:31;18.20;57.70
10062;DHT22;5070;52.382;5.270;2024-03-08T03:53:59;18.30;57.90
10062;DHT22;5070;52.382;5.270;2024-03-08T03:56:27;18.40;57.90
10062;DHT22;5070;52.382;5.270;2024-03-08T03:58:55;18.50;57.90
10062;DHT22;5070;52.382;5.270;2024-03-08T04:01:24;18.50;58.50
10062;DHT22;5070;52.382;5.270;2024-03-08T04:03:53;18.60;57.80
10062;DHT22;5070;52.382;5.270;2024-03-08T04:06:21;18.60;57.50
10062;DHT22;5070;52.382;5.270;2024-03-08T04:08:50;18.70;57.60
10062;DHT22;5070;52.382;5.270;2024-03-08T04:11:18;18.70;57.60
10062;DHT22;5070;52.382;5.270;2024-03-08T04:13:46;18.70;57.40
10062;DHT22;5070;52.382;5.270;2024-03-08T04:16:15;18.80;57.60
10062;DHT22;5070;52.382;5.270;2024-03-08T04:18:43;18.80;57.30
10062;DHT22;5070;52.382;5.270;2024-03-08T04:21:13;18.80;57.40
10062;DHT22;5070;52.382;5.270;2024-03-08T04:23:41;18.80;57.40
10062;DHT22;5070;52.382;5.270;2024-03-08T04:26:12;18.80;57.40
10062;DHT22;5070;52.382;5.270;2024-03-08T04:28:42;18.90;57.40
10062;DHT22;5070;52.382;5.270;2024-03-08T04:31:10;18.90;57.70
10062;DHT22;5070;52.382;5.270;2024-03-08T04:33:38;18.90;57.80
10062;DHT22;5070;52.382;5.270;2024-03-08T04:36:07;18.90;58.00
10062;DHT22;5070;52.382;5.270;2024-03-08T04:38:41;18.90;57.40
10062;DHT22;5070;52.382;5.270;2024-03-08T04:41:09;18.80;57.40
10062;DHT22;5070;52.382;5.270;2024-03-08T04:43:38;18.80;57.50
10062;DHT22;5070;52.382;5.270;2024-03-08T04:46:06;18.70;57.50
10062;DHT22;5070;52.382;5.270;2024-03-08T04:48:34;18.70;57.40
10062;DHT22;5070;52.382;5.270;2024-03-08T04:51:03;18.70;57.40
10062;DHT22;5070;52.382;5.270;2024-03-08T04:53:32;18.60;57.30
10062;DHT22;5070;52.382;5.270;2024-03-08T04:56:02;18.60;57.20
10062;DHT22;5070;52.382;5.270;2024-03-08T04:58:32;18.60;57.10
10062;DHT22;5070;52.382;5.270;2024-03-08T05:01:01;18.60;57.00
10062;DHT22;5070;52.382;5.270;2024-03-08T05:03:29;18.50;56.90
10062;DHT22;5070;52.382;5.270;2024-03-08T05:05:57;18.50;56.90
10062;DHT22;5070;52.382;5.270;2024-03-08T05:08:25;18.40;56.80
10062;DHT22;5070;52.382;5.270;2024-03-08T05:10:53;18.40;56.80
10062;DHT22;5070;52.382;5.270;2024-03-08T05:13:23;18.40;56.80
10062;DHT22;5070;52.382;5.270;2024-03-08T05:15:51;18.30;56.80
10062;DHT22;5070;52.382;5.270;2024-03-08T05:18:19;18.30;56.70
10062;DHT22;5070;52.382;5.270;2024-03-08T05:20:48;18.30;56.80
10062;DHT22;5070;52.382;5.270;2024-03-08T05:23:17;18.30;56.70
10062;DHT22;5070;52.382;5.270;2024-03-08T05:25:47;18.30;56.70
10062;DHT22;5070;52.382;5.270;2024-03-08T05:28:15;18.20;56.70
10062;DHT22;5070;52.382;5.270;2024-03-08T05:30:44;18.20;56.70
10062;DHT22;5070;52.382;5.270;2024-03-08T05:33:12;18.20;56.70
10062;DHT22;5070;52.382;5.270;2024-03-08T05:35:41;18.20;56.60
10062;DHT22;5070;52.382;5.270;2024-03-08T05:38:09;18.20;56.70
10062;DHT22;5070;52.382;5.270;2024-03-08T05:40:39;18.20;56.70
10062;DHT22;5070;52.382;5.270;2024-03-08T05:43:09;18.30;56.80
10062;DHT22;5070;52.382;5.270;2024-03-08T05:45:38;18.40;56.80
10062;DHT22;5070;52.382;5.270;2024-03-08T05:48:08;18.40;57.10
10062;DHT22;5070;52.382;5.270;2024-03-08T05:50:36;18.50;57.00
10062;DHT22;5070;52.382;5.270;2024-03-08T05:53:04;18.50;57.30
10062;DHT22;5070;52.382;5.270;2024-03-08T05:55:33;18.60;57.20
10062;DHT22;5070;52.382;5.270;2024-03-08T05:58:02;18.60;56.60
10062;DHT22;5070;52.382;5.270;2024-03-08T06:00:30;18.70;56.60
10062;DHT22;5070;52.382;5.270;2024-03-08T06:02:58;18.70;56.50
10062;DHT22;5070;52.382;5.270;2024-03-08T06:05:28;18.70;56.30
10062;DHT22;5070;52.382;5.270;2024-03-08T06:07:56;18.80;56.10
10062;DHT22;5070;52.382;5.270;2024-03-08T06:10:25;18.80;56.30
10062;DHT22;5070;52.382;5.270;2024-03-08T06:12:53;18.80;56.60
10062;DHT22;5070;52.382;5.270;2024-03-08T06:15:22;18.80;56.90
10062;DHT22;5070;52.382;5.270;2024-03-08T06:17:50;18.90;56.60
10062;DHT22;5070;52.382;5.270;2024-03-08T06:20:19;18.90;56.40
10062;DHT22;5070;52.382;5.270;2024-03-08T06:22:50;19.00;56.30
10062;DHT22;5070;52.382;5.270;2024-03-08T06:25:20;19.00;56.30
10062;DHT22;5070;52.382;5.270;2024-03-08T06:27:48;19.00;56.30
10062;DHT22;5070;52.382;5.270;2024-03-08T06:30:18;19.00;56.20
10062;DHT22;5070;52.382;5.270;2024-03-08T06:32:47;19.00;56.20
10062;DHT22;5070;52.382;5.270;2024-03-08T06:35:15;19.00;56.20
10062;DHT22;5070;52.382;5.270;2024-03-08T06:37:43;19.10;56.20
10062;DHT22;5070;52.382;5.270;2024-03-08T06:40:13;19.10;56.50
10062;DHT22;5070;52.382;5.270;2024-03-08T06:42:41;19.10;56.10
10062;DHT22;5070;52.382;5.270;2024-03-08T06:45:10;19.10;56.10
10062;DHT22;5070;52.382;5.270;2024-03-08T06:47:39;19.20;56.30
10062;DHT22;5070;52.382;5.270;2024-03-08T06:50:09;19.20;56.10
10062;DHT22;5070;52.382;5.270;2024-03-08T06:52:38;19.20;55.90
10062;DHT22;5070;52.382;5.270;2024-03-08T06:55:07;19.30;55.60
10062;DHT22;5070;52.382;5.270;2024-03-08T06:57:40;19.30;55.50
10062;DHT22;5070;52.382;5.270;2024-03-08T07:00:11;19.40;55.50
10062;DHT22;5070;52.382;5.270;2024-03-08T07:02:45;19.40;55.60
10062;DHT22;5070;52.382;5.270;2024-03-08T07:05:13;19.40;55.60
10062;DHT22;5070;52.382;5.270;2024-03-08T07:07:41;19.50;55.60
10062;DHT22;5070;52.382;5.270;2024-03-08T07:10:09;19.50;55.40
10062;DHT22;5070;52.382;5.270;2024-03-08T07:12:42;19.60;55.40
10062;DHT22;5070;52.382;5.270;2024-03-08T07:15:11;19.60;55.30
10062;DHT22;5070;52.382;5.270;2024-03-08T07:17:41;19.70;55.30
10062;DHT22;5070;52.382;5.270;2024-03-08T07:20:11;19.70;55.20
10062;DHT22;5070;52.382;5.270;2024-03-08T07:22:40;19.80;55.10
10062;DHT22;5070;52.382;5.270;2024-03-08T07:25:13;19.80;55.00
10062;DHT22;5070;52.382;5.270;2024-03-08T07:27:51;19.80;54.90
10062;DHT22;5070;52.382;5.270;2024-03-08T07:30:25;19.90;54.90
10062;DHT22;5070;52.382;5.270;2024-03-08T07:33:12;19.90;54.90
10062;DHT22;5070;52.382;5.270;2024-03-08T07:35:41;19.90;54.80
10062;DHT22;5070;52.382;5.270;2024-03-08T07:38:11;20.00;54.80
10062;DHT22;5070;52.382;5.270;2024-03-08T07:40:39;20.00;54.80
10062;DHT22;5070;52.382;5.270;2024-03-08T07:43:12;20.10;54.60
10062;DHT22;5070;52.382;5.270;2024-03-08T07:45:40;20.10;54.50
10062;DHT22;5070;52.382;5.270;2024-03-08T07:48:08;20.10;54.40
10062;DHT22;5070;52.382;5.270;2024-03-08T07:50:38;20.20;54.50
10062;DHT22;5070;52.382;5.270;2024-03-08T07:53:07;20.20;54.40
10062;DHT22;5070;52.382;5.270;2024-03-08T07:55:36;20.30;54.40
10062;DHT22;5070;52.382;5.270;2024-03-08T07:58:04;20.30;54.20
10062;DHT22;5070;52.382;5.270;2024-03-08T08:00:34;20.40;54.20
10062;DHT22;5070;52.382;5.270;2024-03-08T08:03:03;20.40;54.20
10062;DHT22;5070;52.382;5.270;2024-03-08T08:05:31;20.40;54.10
10062;DHT22;5070;52.382;5.270;2024-03-08T08:08:02;20.40;54.10
10062;DHT22;5070;52.382;5.270;2024-03-08T08:10:32;20.50;54.10
10062;DHT22;5070;52.382;5.270;2024-03-08T08:13:01;20.50;54.10
10062;DHT22;5070;52.382;5.270;2024-03-08T08:15:34;20.40;54.20
10062;DHT22;5070;52.382;5.270;2024-03-08T08:18:05;20.40;54.30
10062;DHT22;5070;52.382;5.270;2024-03-08T08:20:36;20.40;54.40
10062;DHT22;5070;52.382;5.270;2024-03-08T08:23:04;20.30;54.40
10062;DHT22;5070;52.382;5.270;2024-03-08T08:25:32;20.30;54.50
10062;DHT22;5070;52.382;5.270;2024-03-08T08:28:02;20.30;54.50
10062;DHT22;5070;52.382;5.270;2024-03-08T08:30:31;20.30;54.60
10062;DHT22;5070;52.382;5.270;2024-03-08T08:33:02;20.30;54.60
10062;DHT22;5070;52.382;5.270;2024-03-08T08:35:32;20.30;54.70
10062;DHT22;5070;52.382;5.270;2024-03-08T08:38:00;20.20;54.70
10062;DHT22;5070;52.382;5.270;2024-03-08T08:40:31;20.20;54.60
10062;DHT22;5070;52.382;5.270;2024-03-08T08:42:59;20.20;54.70
10062;DHT22;5070;52.382;5.270;2024-03-08T08:45:27;20.20;54.70
10062;DHT22;5070;52.382;5.270;2024-03-08T08:47:57;20.20;54.60
10062;DHT22;5070;52.382;5.270;2024-03-08T08:50:27;20.20;54.60
10062;DHT22;5070;52.382;5.270;2024-03-08T08:52:56;20.20;54.70
10062;DHT22;5070;52.382;5.270;2024-03-08T08:55:24;20.20;54.60
10062;DHT22;5070;52.382;5.270;2024-03-08T08:57:53;20.20;54.60
10062;DHT22;5070;52.382;5.270;2024-03-08T09:00:23;20.20;54.60
10062;DHT22;5070;52.382;5.270;2024-03-08T09:02:54;20.20;54.60
10062;DHT22;5070;52.382;5.270;2024-03-08T09:05:28;20.20;54.60
10062;DHT22;5070;52.382;5.270;2024-03-08T09:07:56;20.20;54.70
10062;DHT22;5070;52.382;5.270;2024-03-08T09:10:24;20.20;54.60
10062;DHT22;5070;52.382;5.270;2024-03-08T09:12:55;20.20;54.60
10062;DHT22;5070;52.382;5.270;2024-03-08T09:15:23;20.20;54.60
10062;DHT22;5070;52.382;5.270;2024-03-08T09:17:55;20.20;54.70
10062;DHT22;5070;52.382;5.270;2024-03-08T09:20:23;20.20;54.60
10062;DHT22;5070;52.382;5.270;2024-03-08T09:22:53;20.20;54.60
10062;DHT22;5070;52.382;5.270;2024-03-08T09:25:21;20.20;54.60
10062;DHT22;5070;52.382;5.270;2024-03-08T09:27:49;20.20;54.50
10062;DHT22;5070;52.382;5.270;2024-03-08T09:30:17;20.20;54.50
10062;DHT22;5070;52.382;5.270;2024-03-08T09:32:48;20.20;54.50
10062;DHT22;5070;52.382;5.270;2024-03-08T09:35:19;20.20;54.50
10062;DHT22;5070;52.382;5.270;2024-03-08T09:37:47;20.20;54.50
10062;DHT22;5070;52.382;5.270;2024-03-08T09:40:19;20.20;54.50
10062;DHT22;5070;52.382;5.270;2024-03-08T09:42:50;20.20;54.50
10062;DHT22;5070;52.382;5.270;2024-03-08T09:45:20;20.20;54.50
10062;DHT22;5070;52.382;5.270;2024-03-08T09:47:50;20.20;54.50
10062;DHT22;5070;52.382;5.270;2024-03-08T09:50:20;20.20;54.50
10062;DHT22;5070;52.382;5.270;2024-03-08T09:52:49;20.20;54.40
10062;DHT22;5070;52.382;5.270;2024-03-08T09:55:19;20.20;54.40
10062;DHT22;5070;52.382;5.270;2024-03-08T09:57:51;20.20;54.50
10062;DHT22;5070;52.382;5.270;2024-03-08T10:00:36;20.30;54.50
10062;DHT22;5070;52.382;5.270;2024-03-08T10:03:04;20.30;54.50
10062;DHT22;5070;52.382;5.270;2024-03-08T10:05:32;20.30;55.00
10062;DHT22;5070;52.382;5.270;2024-03-08T10:08:02;20.30;55.50
10062;DHT22;5070;52.382;5.270;2024-03-08T10:10:33;20.30;54.90
10062;DHT22;5070;52.382;5.270;2024-03-08T10:13:04;20.30;54.90
10062;DHT22;5070;52.382;5.270;2024-03-08T10:15:32;20.30;55.00
10062;DHT22;5070;52.382;5.270;2024-03-08T10:18:01;20.30;54.90
10062;DHT22;5070;52.382;5.270;2024-03-08T10:20:30;20.30;54.80
10062;DHT22;5070;52.382;5.270;2024-03-08T10:23:00;20.30;54.90
10062;DHT22;5070;52.382;5.270;2024-03-08T10:25:38;20.30;56.10
10062;DHT22;5070;52.382;5.270;2024-03-08T10:28:07;20.30;56.40
10062;DHT22;5070;52.382;5.270;2024-03-08T10:30:35;20.30;55.50
10062;DHT22;5070;52.382;5.270;2024-03-08T10:33:03;20.30;55.30
10062;DHT22;5070;52.382;5.270;2024-03-08T10:35:32;20.30;55.20
10062;DHT22;5070;52.382;5.270;2024-03-08T10:38:01;20.30;55.10
10062;DHT22;5070;52.382;5.270;2024-03-08T10:40:35;20.40;55.00
10062;DHT22;5070;52.382;5.270;2024-03-08T10:43:18;20.40;55.00
10062;DHT22;5070;52.382;5.270;2024-03-08T10:46:03;20.40;55.10
10062;DHT22;5070;52.382;5.270;2024-03-08T10:48:39;20.30;55.00
10062;DHT22;5070;52.382;5.270;2024-03-08T10:51:11;20.30;55.00
10062;DHT22;5070;52.382;5.270;2024-03-08T10:53:40;20.30;55.10
10062;DHT22;5070;52.382;5.270;2024-03-08T10:56:09;20.40;55.20
10062;DHT22;5070;52.382;5.270;2024-03-08T10:58:39;20.40;55.10
10062;DHT22;5070;52.382;5.270;2024-03-08T11:01:07;20.40;55.20
10062;DHT22;5070;52.382;5.270;2024-03-08T11:03:47;20.40;55.20
10062;DHT22;5070;52.382;5.270;2024-03-08T11:06:23;20.40;55.20
10062;DHT22;5070;52.382;5.270;2024-03-08T11:08:57;20.40;55.20
10062;DHT22;5070;52.382;5.270;2024-03-08T11:11:27;20.40;55.10
10062;DHT22;5070;52.382;5.270;2024-03-08T11:14:02;20.40;55.20
10062;DHT22;5070;52.382;5.270;2024-03-08T11:16:39;20.40;55.10
10062;DHT22;5070;52.382;5.270;2024-03-08T11:19:24;20.40;55.20
10062;DHT22;5070;52.382;5.270;2024-03-08T11:21:58;20.40;55.10
10062;DHT22;5070;52.382;5.270;2024-03-08T11:24:26;20.40;55.20
10062;DHT22;5070;52.382;5.270;2024-03-08T11:26:57;20.40;55.20
10062;DHT22;5070;52.382;5.270;2024-03-08T11:29:41;20.40;55.20
10062;DHT22;5070;52.382;5.270;2024-03-08T11:32:11;20.40;55.20
10062;DHT22;5070;52.382;5.270;2024-03-08T11:34:42;20.40;55.20
10062;DHT22;5070;52.382;5.270;2024-03-08T11:37:12;20.40;55.20
10062;DHT22;5070;52.382;5.270;2024-03-08T11:39:46;20.40;55.80
10062;DHT22;5070;52.382;5.270;2024-03-08T11:42:18;20.40;55.20
10062;DHT22;5070;52.382;5.270;2024-03-08T11:44:50;20.50;55.30
10062;DHT22;5070;52.382;5.270;2024-03-08T11:47:20;20.50;55.30
10062;DHT22;5070;52.382;5.270;2024-03-08T11:49:48;20.50;55.30
10062;DHT22;5070;52.382;5.270;2024-03-08T11:52:17;20.50;55.20
10062;DHT22;5070;52.382;5.270;2024-03-08T11:54:51;20.50;55.20
10062;DHT22;5070;52.382;5.270;2024-03-08T11:57:22;20.50;55.20
10062;DHT22;5070;52.382;5.270;2024-03-08T11:59:52;20.50;55.20
10062;DHT22;5070;52.382;5.270;2024-03-08T12:02:23;20.50;55.10
10062;DHT22;5070;52.382;5.270;2024-03-08T12:04:56;20.50;55.10
10062;DHT22;5070;52.382;5.270;2024-03-08T12:07:26;20.50;55.10
10062;DHT22;5070;52.382;5.270;2024-03-08T12:10:17;20.50;55.10
10062;DHT22;5070;52.382;5.270;2024-03-08T12:12:47;20.60;55.10
10062;DHT22;5070;52.382;5.270;2024-03-08T12:15:18;20.60;55.20
10062;DHT22;5070;52.382;5.270;2024-03-08T12:17:48;20.60;55.20
10062;DHT22;5070;52.382;5.270;2024-03-08T12:20:18;20.60;55.10
10062;DHT22;5070;52.382;5.270;2024-03-08T12:22:49;20.60;55.10
10062;DHT22;5070;52.382;5.270;2024-03-08T12:25:19;20.60;55.10
10062;DHT22;5070;52.382;5.270;2024-03-08T12:27:47;20.60;55.10
10062;DHT22;5070;52.382;5.270;2024-03-08T12:30:19;20.60;55.10
10062;DHT22;5070;52.382;5.270;2024-03-08T12:32:50;20.60;55.20
10062;DHT22;5070;52.382;5.270;2024-03-08T12:35:20;20.60;55.10
10062;DHT22;5070;52.382;5.270;2024-03-08T12:37:50;20.70;55.20
10062;DHT22;5070;52.382;5.270;2024-03-08T12:40:25;20.70;55.20
10062;DHT22;5070;52.382;5.270;2024-03-08T12:42:54;20.70;55.30
10062;DHT22;5070;52.382;5.270;2024-03-08T12:45:24;20.70;56.10
10062;DHT22;5070;52.382;5.270;2024-03-08T12:47:52;21.00;66.50
10062;DHT22;5070;52.382;5.270;2024-03-08T12:50:21;21.10;60.80
10062;DHT22;5070;52.382;5.270;2024-03-08T12:52:49;21.20;58.90
10062;DHT22;5070;52.382;5.270;2024-03-08T12:55:20;21.20;58.30
10062;DHT22;5070;52.382;5.270;2024-03-08T12:57:48;21.20;57.80
10062;DHT22;5070;52.382;5.270;2024-03-08T13:00:16;21.20;57.50
10062;DHT22;5070;52.382;5.270;2024-03-08T13:02:48;21.20;57.10
10062;DHT22;5070;52.382;5.270;2024-03-08T13:05:17;21.20;56.90
10062;DHT22;5070;52.382;5.270;2024-03-08T13:07:49;21.20;56.90
10062;DHT22;5070;52.382;5.270;2024-03-08T13:10:17;21.20;56.60
10062;DHT22;5070;52.382;5.270;2024-03-08T13:12:47;21.20;56.60
10062;DHT22;5070;52.382;5.270;2024-03-08T13:15:19;21.20;56.70
10062;DHT22;5070;52.382;5.270;2024-03-08T13:17:49;21.20;56.60
10062;DHT22;5070;52.382;5.270;2024-03-08T13:20:17;21.10;56.50
10062;DHT22;5070;52.382;5.270;2024-03-08T13:22:57;21.10;56.40
10062;DHT22;5070;52.382;5.270;2024-03-08T13:25:28;21.20;56.30
10062;DHT22;5070;52.382;5.270;2024-03-08T13:27:56;21.10;56.30
10062;DHT22;5070;52.382;5.270;2024-03-08T13:30:26;21.10;56.40
10062;DHT22;5070;52.382;5.270;2024-03-08T13:32:55;21.10;56.40
10062;DHT22;5070;52.382;5.270;2024-03-08T13:35:23;21.10;56.40
10062;DHT22;5070;52.382;5.270;2024-03-08T13:37:53;21.10;56.40
10062;DHT22;5070;52.382;5.270;2024-03-08T13:40:22;21.10;56.30
10062;DHT22;5070;52.382;5.270;2024-03-08T13:42:50;21.10;56.20
10062;DHT22;5070;52.382;5.270;2024-03-08T13:45:18;21.10;56.20
10062;DHT22;5070;52.382;5.270;2024-03-08T13:47:51;21.10;56.20
10062;DHT22;5070;52.382;5.270;2024-03-08T13:50:22;21.10;56.20
10062;DHT22;5070;52.382;5.270;2024-03-08T13:52:52;21.20;56.30
10062;DHT22;5070;52.382;5.270;2024-03-08T13:55:22;21.20;56.20
10062;DHT22;5070;52.382;5.270;2024-03-08T13:57:52;21.20;56.10
10062;DHT22;5070;52.382;5.270;2024-03-08T14:00:20;21.20;56.00
10062;DHT22;5070;52.382;5.270;2024-03-08T14:02:52;21.30;56.00
10062;DHT22;5070;52.382;5.270;2024-03-08T14:05:20;21.30;56.00
10062;DHT22;5070;52.382;5.270;2024-03-08T14:07:50;21.30;56.00
10062;DHT22;5070;52.382;5.270;2024-03-08T14:10:21;21.30;55.90
10062;DHT22;5070;52.382;5.270;2024-03-08T14:12:50;21.30;55.90
10062;DHT22;5070;52.382;5.270;2024-03-08T14:15:18;21.30;55.90
10062;DHT22;5070;52.382;5.270;2024-03-08T14:17:52;21.30;55.80
10062;DHT22;5070;52.382;5.270;2024-03-08T14:20:25;21.40;55.90
10062;DHT22;5070;52.382;5.270;2024-03-08T14:22:54;21.40;55.80
10062;DHT22;5070;52.382;5.270;2024-03-08T14:25:24;21.40;55.80
10062;DHT22;5070;52.382;5.270;2024-03-08T14:27:53;21.40;55.70
10062;DHT22;5070;52.382;5.270;2024-03-08T14:30:28;21.50;55.60
10062;DHT22;5070;52.382;5.270;2024-03-08T14:33:05;21.50;55.50
10062;DHT22;5070;52.382;5.270;2024-03-08T14:35:36;21.50;55.40
10062;DHT22;5070;52.382;5.270;2024-03-08T14:38:06;21.50;55.40
10062;DHT22;5070;52.382;5.270;2024-03-08T14:40:35;21.60;55.40
10062;DHT22;5070;52.382;5.270;2024-03-08T14:43:03;21.60;55.40
10062;DHT22;5070;52.382;5.270;2024-03-08T14:45:32;21.60;55.30
10062;DHT22;5070;52.382;5.270;2024-03-08T14:48:01;21.60;55.30
10062;DHT22;5070;52.382;5.270;2024-03-08T14:50:31;21.60;55.20
10062;DHT22;5070;52.382;5.270;2024-03-08T14:53:00;21.60;55.10
10062;DHT22;5070;52.382;5.270;2024-03-08T14:55:30;21.60;55.20
10062;DHT22;5070;52.382;5.270;2024-03-08T14:57:58;21.70;55.10
10062;DHT22;5070;52.382;5.270;2024-03-08T15:00:26;21.70;55.10
10062;DHT22;5070;52.382;5.270;2024-03-08T15:03:01;21.70;55.20
10062;DHT22;5070;52.382;5.270;2024-03-08T15:05:31;21.70;55.20
10062;DHT22;5070;52.382;5.270;2024-03-08T15:08:03;21.80;55.20
10062;DHT22;5070;52.382;5.270;2024-03-08T15:10:39;21.80;55.30
10062;DHT22;5070;52.382;5.270;2024-03-08T15:13:09;21.80;55.30
10062;DHT22;5070;52.382;5.270;2024-03-08T15:15:49;21.80;55.30
10062;DHT22;5070;52.382;5.270;2024-03-08T15:18:23;21.80;55.40
10062;DHT22;5070;52.382;5.270;2024-03-08T15:20:54;21.90;55.40
10062;DHT22;5070;52.382;5.270;2024-03-08T15:23:23;21.80;55.50
10062;DHT22;5070;52.382;5.270;2024-03-08T15:25:52;21.80;55.70
10062;DHT22;5070;52.382;5.270;2024-03-08T15:28:25;21.80;55.60
10062;DHT22;5070;52.382;5.270;2024-03-08T15:31:03;21.90;55.70
10062;DHT22;5070;52.382;5.270;2024-03-08T15:33:33;21.90;55.90
10062;DHT22;5070;52.382;5.270;2024-03-08T15:36:01;21.90;55.90
10062;DHT22;5070;52.382;5.270;2024-03-08T15:38:35;21.90;55.90
10062;DHT22;5070;52.382;5.270;2024-03-08T15:41:04;21.90;55.90
10062;DHT22;5070;52.382;5.270;2024-03-08T15:43:36;21.90;55.90
10062;DHT22;5070;52.382;5.270;2024-03-08T15:46:06;21.90;55.90
10062;DHT22;5070;52.382;5.270;2024-03-08T15:48:36;21.80;55.70
10062;DHT22;5070;52.382;5.270;2024-03-08T15:51:05;21.80;55.70
10062;DHT22;5070;52.382;5.270;2024-03-08T15:53:33;21.80;55.70
10062;DHT22;5070;52.382;5.270;2024-03-08T15:56:01;21.80;55.70
10062;DHT22;5070;52.382;5.270;2024-03-08T15:58:34;21.80;55.60
10062;DHT22;5070;52.382;5.270;2024-03-08T16:01:04;21.80;55.60